Time;durP1;ratioP1;P1;durP2;ratioP2;P2;SDS_P1;SDS_P2;PMS_P1;PMS_P2;Temp;Humidity;BMP_temperature;BMP_pressure;BME280_temperature;BME280_humidity;BME280_pressure;Samples;Min_cycle;Max_cycle;Signal;HPM_P1;HPM_P2
2022/09/22 00:01:27;;;;;;;3.57;2.37;;;16.50;83.00;;;;;;4958201;28;20447;-73
2022/09/22 00:03:59;;;;;;;2.73;2.30;;;16.50;83.10;;;;;;4940178;28;20456;-73
2022/09/22 00:06:30;;;;;;;8.37;2.70;;;16.50;83.00;;;;;;4991809;28;21150;-74
2022/09/22 00:09:00;;;;;;;2.73;2.50;;;16.50;83.00;;;;;;4981741;28;20488;-74
2022/09/22 00:11:36;;;;;;;3.80;2.90;;;16.40;82.80;;;;;;4958776;28;20512;-73
2022/09/22 00:14:09;;;;;;;3.40;2.93;;;16.50;83.00;;;;;;4958821;28;20469;-74
2022/09/22 00:16:43;;;;;;;3.37;2.40;;;16.40;82.90;;;;;;4939632;29;20505;-74
2022/09/22 00:19:16;;;;;;;3.90;2.73;;;16.40;82.90;;;;;;4975029;28;20424;-73
2022/09/22 00:21:46;;;;;;;3.33;2.40;;;16.40;82.90;;;;;;4955642;29;20457;-73
2022/09/22 00:24:16;;;;;;;5.70;3.00;;;16.40;82.80;;;;;;4941400;28;20444;-73
2022/09/22 00:26:47;;;;;;;2.77;2.47;;;16.40;82.80;;;;;;4959229;28;20449;-73
2022/09/22 00:29:16;;;;;;;2.40;2.17;;;16.40;82.70;;;;;;4974971;28;20536;-73
2022/09/22 00:31:45;;;;;;;5.83;2.97;;;16.40;82.70;;;;;;4956078;28;20413;-73
2022/09/22 00:34:18;;;;;;;3.43;2.30;;;16.30;82.60;;;;;;4940912;28;20451;-74
2022/09/22 00:36:44;;;;;;;2.90;2.40;;;16.30;82.60;;;;;;4942610;28;20436;-74
2022/09/22 00:39:11;;;;;;;3.53;2.70;;;16.30;82.60;;;;;;4974476;28;20961;-75
2022/09/22 00:41:41;;;;;;;2.60;2.37;;;16.30;82.50;;;;;;4973988;28;21045;-73
2022/09/22 00:44:28;;;;;;;3.73;2.70;;;16.30;82.60;;;;;;4939873;29;20452;-72
2022/09/22 00:47:02;;;;;;;3.93;2.60;;;16.30;82.50;;;;;;4955535;29;20466;-73
2022/09/22 00:49:41;;;;;;;4.40;2.80;;;16.20;82.30;;;;;;4942631;28;20505;-73
2022/09/22 00:52:08;;;;;;;2.73;2.40;;;16.20;82.30;;;;;;4958789;28;20454;-73
2022/09/22 00:54:37;;;;;;;3.50;2.80;;;16.20;82.30;;;;;;4973000;28;20540;-73
2022/09/22 00:57:11;;;;;;;4.67;3.60;;;16.20;82.30;;;;;;4939699;29;20397;-72
2022/09/22 00:59:38;;;;;;;4.03;2.57;;;16.20;82.20;;;;;;4943080;28;20876;-73
2022/09/22 01:02:07;;;;;;;5.13;2.70;;;16.20;82.20;;;;;;4975776;28;20410;-72
2022/09/22 01:04:36;;;;;;;2.47;2.20;;;16.20;82.10;;;;;;4972875;28;20461;-72
2022/09/22 01:07:08;;;;;;;3.80;2.63;;;16.20;82.00;;;;;;4955182;29;20413;-73
2022/09/22 01:09:37;;;;;;;3.60;2.47;;;16.20;82.10;;;;;;4959103;28;20535;-73
2022/09/22 01:12:03;;;;;;;4.63;2.57;;;16.20;82.00;;;;;;4973757;28;20442;-72
2022/09/22 01:14:47;;;;;;;3.30;2.77;;;16.10;81.90;;;;;;4973210;28;20432;-74
2022/09/22 01:17:19;;;;;;;2.97;2.33;;;16.10;81.80;;;;;;4958660;28;20948;-73
2022/09/22 01:20:14;;;;;;;4.27;2.70;;;16.10;81.90;;;;;;4954212;29;20427;-72
2022/09/22 01:22:55;;;;;;;3.00;2.70;;;16.10;81.80;;;;;;4907678;29;20449;-73
2022/09/22 01:25:48;;;;;;;3.80;2.77;;;16.10;81.80;;;;;;4947472;28;20474;-73
2022/09/22 01:28:54;;;;;;;4.47;2.30;;;16.10;81.70;;;;;;4958348;28;20481;-73
2022/09/22 01:32:11;;;;;;;4.23;2.40;;;16.00;81.60;;;;;;4925403;29;20438;-73
2022/09/22 01:35:10;;;;;;;2.47;2.20;;;16.00;81.60;;;;;;4948116;28;20456;-73
2022/09/22 01:38:08;;;;;;;3.73;2.90;;;16.00;81.60;;;;;;4971722;28;20541;-73
2022/09/22 01:40:59;;;;;;;2.10;1.93;;;16.00;81.70;;;;;;4981090;28;20886;-73
2022/09/22 01:43:48;;;;;;;3.70;2.57;;;16.00;81.60;;;;;;4974529;28;20454;-73
2022/09/22 01:46:31;;;;;;;4.17;2.40;;;16.00;81.70;;;;;;4971260;28;20480;-74
2022/09/22 01:49:04;;;;;;;4.53;2.77;;;16.00;81.80;;;;;;4973388;28;20704;-73
2022/09/22 01:51:38;;;;;;;2.90;2.40;;;15.90;81.70;;;;;;4973152;28;20445;-73
2022/09/22 01:54:11;;;;;;;5.23;2.80;;;15.90;81.80;;;;;;4953095;28;20481;-74
2022/09/22 01:56:43;;;;;;;3.40;2.40;;;15.90;81.90;;;;;;4955424;29;20911;-74
2022/09/22 01:59:13;;;;;;;2.23;2.03;;;15.90;81.90;;;;;;4938383;29;20444;-73
2022/09/22 02:01:54;;;;;;;3.90;2.40;;;15.90;81.80;;;;;;4956585;28;20455;-73
2022/09/22 02:04:30;;;;;;;3.60;2.20;;;15.90;81.80;;;;;;4971143;28;20514;-73
2022/09/22 02:07:07;;;;;;;2.47;2.27;;;15.90;81.70;;;;;;4957217;28;20472;-73
2022/09/22 02:09:37;;;;;;;5.83;2.30;;;15.90;81.80;;;;;;4931003;28;20480;-73
2022/09/22 02:12:06;;;;;;;3.13;2.40;;;15.80;81.70;;;;;;4974913;28;20492;-73
2022/09/22 02:14:37;;;;;;;3.97;1.93;;;15.80;81.70;;;;;;4951477;28;20454;-73
2022/09/22 02:17:09;;;;;;;2.30;2.00;;;15.80;81.70;;;;;;4973811;28;20407;-73
2022/09/22 02:19:37;;;;;;;3.20;2.17;;;15.80;81.70;;;;;;4970763;28;20839;-73
2022/09/22 02:22:04;;;;;;;2.40;2.10;;;15.80;81.60;;;;;;4955035;29;20433;-72
2022/09/22 02:24:39;;;;;;;3.77;2.00;;;15.80;81.60;;;;;;4948358;28;20448;-72
2022/09/22 02:27:08;;;;;;;3.20;2.60;;;15.80;81.60;;;;;;4989499;28;20465;-74
2022/09/22 02:29:45;;;;;;;1.80;1.70;;;15.80;81.60;;;;;;4940314;28;20482;-73
2022/09/22 02:32:16;;;;;;;3.80;2.37;;;15.80;81.70;;;;;;4974065;28;20177;-73
2022/09/22 02:34:44;;;;;;;3.23;2.60;;;15.70;81.50;;;;;;4972765;28;20449;-73
2022/09/22 02:37:50;;;;;;;2.40;2.13;;;15.70;81.40;;;;;;4976136;28;20393;-73
2022/09/22 02:40:41;;;;;;;2.60;2.40;;;15.70;81.40;;;;;;4955861;28;20477;-73
2022/09/22 02:43:18;;;;;;;2.90;2.17;;;15.70;81.40;;;;;;4952096;28;20427;-73
2022/09/22 02:46:06;;;;;;;4.40;2.23;;;15.70;81.40;;;;;;4973767;28;20507;-73
2022/09/22 02:48:43;;;;;;;3.00;2.50;;;15.70;82.20;;;;;;4955892;28;20404;-73
2022/09/22 02:51:14;;;;;;;2.43;2.23;;;15.60;81.20;;;;;;4943013;29;20450;-73
2022/09/22 02:53:44;;;;;;;2.73;2.00;;;15.60;81.30;;;;;;4944867;28;20793;-74
2022/09/22 02:56:10;;;;;;;3.33;2.10;;;15.60;81.20;;;;;;4972980;28;20836;-73
2022/09/22 02:58:43;;;;;;;4.73;2.70;;;15.60;81.20;;;;;;4975877;28;20450;-73
2022/09/22 03:01:09;;;;;;;4.20;3.07;;;15.60;81.20;;;;;;4926848;29;20589;-72
2022/09/22 03:03:38;;;;;;;2.27;2.00;;;15.60;81.20;;;;;;4943700;28;20456;-73
2022/09/22 03:06:06;;;;;;;2.73;2.20;;;15.60;81.10;;;;;;4973641;28;20466;-73
2022/09/22 03:08:34;;;;;;;2.83;2.00;;;15.50;80.90;;;;;;4986255;28;20425;-72
2022/09/22 03:11:00;;;;;;;5.40;2.03;;;15.50;80.90;;;;;;4954397;28;20435;-73
2022/09/22 03:13:26;;;;;;;3.30;2.37;;;15.50;80.90;;;;;;4955607;28;20968;-72
2022/09/22 03:15:55;;;;;;;5.30;2.17;;;15.50;80.90;;;;;;4973020;28;20451;-73
2022/09/22 03:18:22;;;;;;;2.80;2.00;;;15.50;80.90;;;;;;4952311;29;20447;-72
2022/09/22 03:20:52;;;;;;;2.37;2.17;;;15.50;80.90;;;;;;4930871;28;20424;-73
2022/09/22 03:23:18;;;;;;;3.00;2.30;;;15.50;80.90;;;;;;4987821;28;20419;-73
2022/09/22 03:25:47;;;;;;;5.40;2.70;;;15.50;80.80;;;;;;4956371;28;21027;-72
2022/09/22 03:28:13;;;;;;;2.40;2.20;;;15.50;80.80;;;;;;4938810;28;20472;-73
2022/09/22 03:30:42;;;;;;;3.80;2.30;;;15.40;80.60;;;;;;4947526;29;20423;-73
2022/09/22 03:33:08;;;;;;;2.40;2.13;;;15.40;80.60;;;;;;4955898;28;20431;-73
2022/09/22 03:35:34;;;;;;;2.57;2.20;;;15.40;81.40;;;;;;4973446;28;21030;-73
2022/09/22 03:38:00;;;;;;;2.30;1.97;;;15.40;80.60;;;;;;4955513;28;20405;-73
2022/09/22 03:40:26;;;;;;;2.83;2.10;;;15.40;80.60;;;;;;4938924;28;20801;-74
2022/09/22 03:42:52;;;;;;;4.33;2.07;;;15.40;80.50;;;;;;4939143;28;20536;-73
2022/09/22 03:45:20;;;;;;;2.67;2.40;;;15.40;80.50;;;;;;4988442;28;20546;-73
2022/09/22 03:47:48;;;;;;;2.80;2.17;;;15.30;80.40;;;;;;4965785;28;20172;-73
2022/09/22 03:50:19;;;;;;;3.00;2.47;;;15.30;80.40;;;;;;4947087;28;20750;-73
2022/09/22 03:52:45;;;;;;;4.40;2.33;;;15.30;80.30;;;;;;4965932;28;20431;-73
2022/09/22 03:55:15;;;;;;;3.20;2.20;;;15.30;80.30;;;;;;4937424;29;20492;-73
2022/09/22 03:57:42;;;;;;;2.57;2.37;;;15.30;80.30;;;;;;4926509;28;20489;-73
2022/09/22 04:00:12;;;;;;;4.07;2.33;;;15.30;80.30;;;;;;4946816;29;20464;-73
2022/09/22 04:02:39;;;;;;;2.20;2.00;;;15.30;80.30;;;;;;4942592;28;20828;-73
2022/09/22 04:05:05;;;;;;;5.50;2.27;;;15.30;80.30;;;;;;4971976;28;20482;-73
2022/09/22 04:07:32;;;;;;;2.10;1.90;;;15.20;80.20;;;;;;4968309;28;20420;-75
2022/09/22 04:09:57;;;;;;;4.17;2.50;;;15.20;80.20;;;;;;4960506;28;20807;-73
2022/09/22 04:12:26;;;;;;;5.60;2.30;;;15.20;80.20;;;;;;4972792;28;20454;-73
2022/09/22 04:14:54;;;;;;;2.50;2.30;;;15.20;80.10;;;;;;4972460;28;20456;-73
2022/09/22 04:17:25;;;;;;;2.63;2.17;;;15.20;80.10;;;;;;4972493;28;20414;-74
2022/09/22 04:19:51;;;;;;;3.00;2.20;;;15.20;80.10;;;;;;4966543;28;20437;-74
2022/09/22 04:22:17;;;;;;;2.40;2.20;;;15.20;80.10;;;;;;4955514;28;20419;-74
2022/09/22 04:24:45;;;;;;;4.40;2.27;;;15.10;80.00;;;;;;4951582;28;20481;-73
2022/09/22 04:27:34;;;;;;;4.13;2.10;;;15.10;80.10;;;;;;4921157;29;20453;-74
2022/09/22 04:30:01;;;;;;;3.17;2.13;;;15.10;80.00;;;;;;4944221;29;20422;-73
2022/09/22 04:32:28;;;;;;;2.80;2.20;;;15.10;80.10;;;;;;4903996;29;20510;-74
2022/09/22 04:34:54;;;;;;;3.50;2.03;;;15.10;80.10;;;;;;4950996;29;20836;-74
2022/09/22 04:37:19;;;;;;;2.50;2.27;;;15.10;80.00;;;;;;4931407;28;20487;-74
2022/09/22 04:39:53;;;;;;;3.80;2.20;;;15.10;80.00;;;;;;4951035;29;20789;-73
2022/09/22 04:42:23;;;;;;;3.30;2.37;;;15.10;80.00;;;;;;4942081;28;20444;-73
2022/09/22 04:44:49;;;;;;;3.10;2.20;;;15.00;79.90;;;;;;4958793;28;20440;-73
2022/09/22 04:47:15;;;;;;;5.13;2.03;;;15.00;79.90;;;;;;4930430;29;20438;-73
2022/09/22 04:49:46;;;;;;;2.90;2.17;;;15.00;79.90;;;;;;4950644;28;20434;-73
2022/09/22 04:52:12;;;;;;;3.57;2.20;;;15.00;79.90;;;;;;4956731;28;20438;-73
2022/09/22 04:54:38;;;;;;;3.30;2.23;;;15.00;79.90;;;;;;4958311;28;21045;-73
2022/09/22 04:57:10;;;;;;;6.00;2.50;;;15.00;79.80;;;;;;4975286;28;20224;-73
2022/09/22 04:59:38;;;;;;;2.60;2.23;;;15.00;79.90;;;;;;4984743;28;20537;-73
2022/09/22 05:02:06;;;;;;;3.50;2.40;;;15.00;79.80;;;;;;4966799;28;20514;-73
2022/09/22 05:04:35;;;;;;;3.90;2.90;;;14.90;79.70;;;;;;4971364;28;20515;-73
2022/09/22 05:07:03;;;;;;;2.73;2.47;;;14.90;79.70;;;;;;4924277;29;20580;-75
2022/09/22 05:09:29;;;;;;;4.03;2.50;;;14.90;79.70;;;;;;4954524;28;20963;-73
2022/09/22 05:11:57;;;;;;;3.53;2.37;;;14.90;79.70;;;;;;4990615;28;20423;-73
2022/09/22 05:14:23;;;;;;;2.57;2.37;;;14.90;79.70;;;;;;4938238;28;20506;-74
2022/09/22 05:16:52;;;;;;;5.43;2.40;;;14.90;79.70;;;;;;4906483;29;20936;-73
2022/09/22 05:19:18;;;;;;;2.90;2.43;;;14.80;79.60;;;;;;4967178;28;20448;-73
2022/09/22 05:21:44;;;;;;;2.67;1.80;;;14.80;79.60;;;;;;4962122;28;20429;-74
2022/09/22 05:24:13;;;;;;;2.87;2.57;;;14.80;79.60;;;;;;4950242;29;20482;-74
2022/09/22 05:26:39;;;;;;;2.70;2.23;;;14.80;79.60;;;;;;4932103;28;20456;-74
2022/09/22 05:29:05;;;;;;;2.97;2.20;;;14.80;79.50;;;;;;4957693;28;20996;-73
2022/09/22 05:31:34;;;;;;;2.30;2.10;;;14.80;79.60;;;;;;5043114;23;20603;-74
2022/09/22 05:34:04;;;;;;;3.80;2.10;;;14.80;79.60;;;;;;4944154;29;20481;-75
2022/09/22 05:36:31;;;;;;;2.23;2.00;;;14.80;79.50;;;;;;4950434;28;20979;-74
2022/09/22 05:38:57;;;;;;;3.20;2.30;;;14.80;79.50;;;;;;4974577;28;20843;-73
2022/09/22 05:41:23;;;;;;;6.27;1.97;;;14.70;79.40;;;;;;4936719;28;20450;-73
2022/09/22 05:43:52;;;;;;;2.73;2.10;;;14.70;79.40;;;;;;4946285;28;20533;-73
2022/09/22 05:46:20;;;;;;;6.33;2.13;;;14.70;79.40;;;;;;4940430;28;20477;-73
2022/09/22 05:48:50;;;;;;;3.03;2.40;;;14.70;79.40;;;;;;4977144;28;20429;-74
2022/09/22 05:51:16;;;;;;;2.70;2.30;;;14.70;79.40;;;;;;4960136;28;20472;-74
2022/09/22 05:53:44;;;;;;;2.70;2.13;;;14.70;79.40;;;;;;4957717;28;20398;-73
2022/09/22 05:56:12;;;;;;;2.20;1.93;;;14.70;79.50;;;;;;4957798;28;20453;-73
2022/09/22 05:58:38;;;;;;;2.20;2.00;;;14.70;79.50;;;;;;4957702;28;20441;-73
2022/09/22 06:01:05;;;;;;;2.57;2.00;;;14.70;79.50;;;;;;4974790;28;20469;-73
2022/09/22 06:03:31;;;;;;;2.10;1.90;;;14.70;79.50;;;;;;4958425;28;20486;-73
2022/09/22 06:05:59;;;;;;;2.30;2.10;;;14.60;79.50;;;;;;4977098;28;20469;-73
2022/09/22 06:08:27;;;;;;;3.10;2.13;;;14.70;79.60;;;;;;4960498;28;20511;-73
2022/09/22 06:10:53;;;;;;;2.53;2.10;;;14.60;79.50;;;;;;4936582;29;20432;-73
2022/09/22 06:13:22;;;;;;;3.87;2.37;;;14.60;79.50;;;;;;4955093;29;20835;-73
2022/09/22 06:15:50;;;;;;;4.37;2.07;;;14.60;79.60;;;;;;4956663;28;20454;-73
2022/09/22 06:18:19;;;;;;;4.10;2.30;;;14.60;79.60;;;;;;4951486;29;20829;-73
2022/09/22 06:20:50;;;;;;;3.00;2.20;;;14.60;79.60;;;;;;4969926;28;20429;-73
2022/09/22 06:23:19;;;;;;;3.40;1.93;;;14.60;79.60;;;;;;4955567;28;20446;-71
2022/09/22 06:25:56;;;;;;;2.43;2.17;;;14.60;79.70;;;;;;4944940;28;20534;-73
2022/09/22 06:28:25;;;;;;;3.53;2.60;;;14.50;79.70;;;;;;4937694;29;20422;-72
2022/09/22 06:30:51;;;;;;;2.60;2.40;;;14.60;79.90;;;;;;4922097;29;20839;-72
2022/09/22 06:33:22;;;;;;;3.27;2.33;;;14.50;79.80;;;;;;4915856;28;20428;-73
2022/09/22 06:35:51;;;;;;;3.77;2.70;;;14.50;79.80;;;;;;4955097;28;20935;-72
2022/09/22 06:38:17;;;;;;;4.40;3.27;;;14.50;79.90;;;;;;4961248;28;20526;-73
2022/09/22 06:40:43;;;;;;;3.10;2.70;;;14.50;80.00;;;;;;4940553;28;20473;-72
2022/09/22 06:43:21;;;;;;;3.03;2.70;;;14.50;80.00;;;;;;4959694;28;20440;-73
2022/09/22 06:45:51;;;;;;;3.13;2.30;;;14.50;80.10;;;;;;4970692;28;20466;-72
2022/09/22 06:48:21;;;;;;;3.90;2.90;;;14.50;80.20;;;;;;4956102;28;20418;-73
2022/09/22 06:50:51;;;;;;;3.20;2.17;;;14.50;80.30;;;;;;4929342;28;20453;-73
2022/09/22 06:53:19;;;;;;;3.47;2.00;;;14.50;80.40;;;;;;4924754;29;20445;-73
2022/09/22 06:55:48;;;;;;;4.10;2.60;;;14.50;80.60;;;;;;4938016;29;20487;-73
2022/09/22 06:58:16;;;;;;;2.37;2.17;;;14.50;80.70;;;;;;4946232;28;20446;-73
2022/09/22 07:00:44;;;;;;;2.60;2.00;;;14.50;80.70;;;;;;4973587;28;20509;-73
2022/09/22 07:03:20;;;;;;;2.87;2.60;;;14.50;80.80;;;;;;4936139;29;20200;-73
2022/09/22 07:05:59;;;;;;;2.80;2.50;;;14.50;80.90;;;;;;4935206;29;20474;-72
2022/09/22 07:08:29;;;;;;;3.10;2.10;;;14.50;81.10;;;;;;4947030;28;20440;-72
2022/09/22 07:11:01;;;;;;;4.13;2.70;;;14.50;81.30;;;;;;4937210;29;20461;-71
2022/09/22 07:13:29;;;;;;;3.60;2.60;;;14.50;81.30;;;;;;4952781;28;20847;-73
2022/09/22 07:15:59;;;;;;;3.40;2.20;;;14.40;81.30;;;;;;4921294;29;21033;-73
2022/09/22 07:18:30;;;;;;;3.33;2.57;;;14.40;81.40;;;;;;4943325;28;20463;-73
2022/09/22 07:21:06;;;;;;;3.67;3.00;;;14.40;81.60;;;;;;5023573;23;20957;-72
2022/09/22 07:23:34;;;;;;;5.67;2.60;;;14.40;81.60;;;;;;4957680;28;20418;-73
2022/09/22 07:26:03;;;;;;;3.47;2.67;;;14.40;81.70;;;;;;4942662;29;20485;-72
2022/09/22 07:28:30;;;;;;;4.50;3.00;;;14.40;81.80;;;;;;4922368;29;20942;-72
2022/09/22 07:31:13;;;;;;;5.17;2.93;;;14.40;81.90;;;;;;4938333;29;20447;-72
2022/09/22 07:33:44;;;;;;;3.80;2.50;;;14.40;81.90;;;;;;4936211;29;20581;-72
2022/09/22 07:36:17;;;;;;;2.53;2.30;;;14.40;81.90;;;;;;4951990;28;20962;-72
2022/09/22 07:38:48;;;;;;;2.57;2.20;;;14.40;82.00;;;;;;4954192;28;20415;-72
2022/09/22 07:41:20;;;;;;;2.43;2.20;;;14.40;82.10;;;;;;4956765;28;20409;-72
2022/09/22 07:43:50;;;;;;;3.33;2.40;;;14.40;82.20;;;;;;4956303;28;20427;-72
2022/09/22 07:46:19;;;;;;;3.50;2.30;;;14.40;82.20;;;;;;4973595;28;20476;-72
2022/09/22 07:48:46;;;;;;;2.77;2.30;;;14.40;82.30;;;;;;4956709;28;20488;-72
2022/09/22 07:51:18;;;;;;;2.80;2.23;;;14.40;82.40;;;;;;4940366;28;20951;-72
2022/09/22 07:54:06;;;;;;;3.97;2.20;;;14.40;82.50;;;;;;4974080;28;20976;-72
2022/09/22 07:56:43;;;;;;;7.37;2.37;;;14.40;82.50;;;;;;4956788;28;20525;-72
2022/09/22 07:59:11;;;;;;;2.60;2.37;;;14.40;82.60;;;;;;4974070;28;20823;-72
2022/09/22 08:01:58;;;;;;;3.87;2.60;;;14.40;82.60;;;;;;4937386;29;20804;-72
2022/09/22 08:04:29;;;;;;;2.80;2.10;;;14.40;82.60;;;;;;4921900;29;20528;-72
2022/09/22 08:07:03;;;;;;;2.40;2.07;;;14.40;82.70;;;;;;4954667;29;20475;-72
2022/09/22 08:09:30;;;;;;;3.20;1.80;;;14.40;82.80;;;;;;4937794;29;20438;-72
2022/09/22 08:12:01;;;;;;;2.53;2.10;;;14.40;82.90;;;;;;4938072;29;20483;-73
2022/09/22 08:14:29;;;;;;;2.60;2.20;;;14.40;82.90;;;;;;4921639;29;20430;-72
2022/09/22 08:16:56;;;;;;;4.73;2.73;;;14.40;82.90;;;;;;4958392;29;20509;-72
2022/09/22 08:19:22;;;;;;;3.00;1.80;;;14.40;83.00;;;;;;4941269;29;20449;-73
2022/09/22 08:21:54;;;;;;;4.20;2.27;;;14.50;83.10;;;;;;4953715;28;20440;-72
2022/09/22 08:24:21;;;;;;;2.17;1.73;;;14.50;83.20;;;;;;4944319;28;20445;-72
2022/09/22 08:26:51;;;;;;;2.50;1.90;;;14.50;83.20;;;;;;4960121;28;20462;-72
2022/09/22 08:29:20;;;;;;;3.70;1.90;;;14.50;83.20;;;;;;4928666;28;20526;-72
2022/09/22 08:31:47;;;;;;;1.90;1.53;;;14.50;83.20;;;;;;4960255;28;20402;-72
2022/09/22 08:34:18;;;;;;;2.33;1.80;;;14.50;83.30;;;;;;4960037;28;20790;-72
2022/09/22 08:36:47;;;;;;;2.90;2.10;;;14.50;83.30;;;;;;4959887;28;20831;-72
2022/09/22 08:39:16;;;;;;;2.00;1.60;;;14.50;83.30;;;;;;4983338;28;20436;-72
2022/09/22 08:42:00;;;;;;;4.17;2.40;;;14.50;83.30;;;;;;4960025;28;20446;-72
2022/09/22 08:45:05;;;;;;;3.60;2.20;;;14.50;83.30;;;;;;4960294;28;20486;-72
2022/09/22 08:53:32;;;;;;;2.50;2.13;;;14.60;83.40;;;;;;4959773;28;20438;-72
2022/09/22 08:56:36;;;;;;;2.27;1.90;;;14.60;83.60;;;;;;4943719;28;20437;-72
2022/09/22 08:59:21;;;;;;;6.33;2.83;;;14.60;83.90;;;;;;4941752;28;20915;-72
2022/09/22 09:02:12;;;;;;;5.20;2.07;;;14.60;84.00;;;;;;4976958;28;20741;-72
2022/09/22 09:04:47;;;;;;;2.67;2.20;;;14.60;84.20;;;;;;4959649;28;20447;-72
2022/09/22 09:07:57;;;;;;;2.43;1.87;;;14.70;84.40;;;;;;4953090;29;20451;-72
2022/09/22 09:10:41;;;;;;;4.53;2.10;;;14.70;84.50;;;;;;4948180;29;20448;-72
2022/09/22 09:13:35;;;;;;;1.97;1.77;;;14.70;84.50;;;;;;4940496;29;20471;-72
2022/09/22 09:16:40;;;;;;;4.50;2.23;;;14.70;84.50;;;;;;4924404;29;20458;-72
2022/09/22 09:19:12;;;;;;;2.30;2.07;;;14.70;84.60;;;;;;4957225;29;20407;-72
2022/09/22 09:21:54;;;;;;;2.17;1.97;;;14.80;84.60;;;;;;4956909;28;20468;-72
2022/09/22 09:24:39;;;;;;;2.37;2.10;;;14.80;84.50;;;;;;4939816;28;20525;-72
2022/09/22 09:27:24;;;;;;;2.50;2.30;;;14.80;84.40;;;;;;4957537;28;20521;-72
2022/09/22 09:30:05;;;;;;;3.23;2.20;;;14.80;84.40;;;;;;4959385;28;20405;-72
2022/09/22 09:32:59;;;;;;;3.93;2.23;;;14.90;84.60;;;;;;4943064;28;20444;-72
2022/09/22 09:35:44;;;;;;;1.97;1.73;;;14.90;84.40;;;;;;4960824;28;20445;-73
2022/09/22 09:38:38;;;;;;;2.73;2.10;;;15.00;84.50;;;;;;4958691;28;20919;-72
2022/09/22 09:41:18;;;;;;;2.53;2.27;;;15.00;84.60;;;;;;4957668;28;20967;-72
2022/09/22 09:43:47;;;;;;;3.57;2.10;;;15.00;84.50;;;;;;4958917;28;20793;-72
2022/09/22 09:46:47;;;;;;;2.47;2.27;;;15.00;84.50;;;;;;4955370;29;21050;-72
2022/09/22 09:49:15;;;;;;;3.13;2.10;;;15.10;84.60;;;;;;4939832;29;20426;-72
2022/09/22 09:51:47;;;;;;;2.53;2.20;;;15.10;84.50;;;;;;4956582;29;20410;-72
2022/09/22 09:54:15;;;;;;;3.63;1.80;;;15.10;84.50;;;;;;4956473;29;20916;-72
2022/09/22 09:57:00;;;;;;;6.63;2.10;;;15.20;84.50;;;;;;4932519;28;20921;-72
2022/09/22 10:02:58;;;;;;;3.33;1.87;;;15.20;84.40;;;;;;4959337;28;20581;-72
2022/09/22 10:05:27;;;;;;;4.37;1.70;;;15.30;84.40;;;;;;4969455;28;20889;-72
2022/09/22 10:08:00;;;;;;;3.37;2.00;;;15.30;84.40;;;;;;4975437;28;20855;-72
2022/09/22 10:10:53;;;;;;;2.10;1.80;;;15.40;84.50;;;;;;4940195;29;20458;-72
2022/09/22 10:13:30;;;;;;;2.80;2.20;;;15.40;84.50;;;;;;4953894;28;20466;-72
2022/09/22 10:16:20;;;;;;;3.33;1.97;;;15.40;84.30;;;;;;4942758;28;20485;-72
2022/09/22 10:19:03;;;;;;;2.13;1.93;;;15.50;84.20;;;;;;4975405;28;20449;-72
2022/09/22 10:21:29;;;;;;;2.50;1.80;;;15.50;84.10;;;;;;4958165;28;20444;-72
2022/09/22 10:24:01;;;;;;;4.27;1.93;;;15.50;83.90;;;;;;4957864;28;20396;-72
2022/09/22 10:26:33;;;;;;;4.67;2.13;;;15.60;83.90;;;;;;4941908;28;20462;-71
2022/09/22 10:29:14;;;;;;;3.23;1.87;;;15.60;83.80;;;;;;4958062;28;20483;-72
2022/09/22 10:31:41;;;;;;;2.43;1.83;;;15.60;83.80;;;;;;4957802;28;20937;-72
2022/09/22 10:34:30;;;;;;;2.70;1.83;;;15.70;83.70;;;;;;4951035;28;20429;-72
2022/09/22 10:37:00;;;;;;;3.03;2.17;;;15.70;83.50;;;;;;4907906;29;20544;-72
2022/09/22 10:39:46;;;;;;;2.67;1.97;;;15.70;83.40;;;;;;4938567;29;20439;-72
2022/09/22 10:42:28;;;;;;;2.60;2.00;;;15.80;83.40;;;;;;4955709;29;20402;-72
2022/09/22 10:44:59;;;;;;;2.50;2.10;;;15.80;83.10;;;;;;4955616;28;20786;-72
2022/09/22 10:47:56;;;;;;;2.70;1.90;;;15.80;82.60;;;;;;4955847;29;20436;-72
2022/09/22 10:50:49;;;;;;;2.33;1.80;;;15.90;82.40;;;;;;4940927;28;20454;-72
2022/09/22 10:53:50;;;;;;;2.03;1.83;;;15.90;82.40;;;;;;4955614;29;20892;-72
2022/09/22 10:56:36;;;;;;;2.90;2.33;;;15.90;82.30;;;;;;4938426;29;20966;-72
2022/09/22 10:59:10;;;;;;;3.23;1.80;;;16.00;82.40;;;;;;4954700;29;20478;-72
2022/09/22 11:02:20;;;;;;;3.43;2.10;;;16.00;82.50;;;;;;4955546;29;20408;-72
2022/09/22 11:05:07;;;;;;;2.90;1.97;;;16.10;82.60;;;;;;4915427;29;20460;-72
2022/09/22 11:14:22;;;;;;;3.07;2.07;;;16.20;82.60;;;;;;4954282;29;20420;-72
2022/09/22 11:17:01;;;;;;;2.00;1.60;;;16.20;82.50;;;;;;4940224;28;20406;-72
2022/09/22 11:19:49;;;;;;;3.23;1.83;;;16.20;82.30;;;;;;4941555;28;20411;-72
2022/09/22 11:22:49;;;;;;;1.73;1.63;;;16.30;82.30;;;;;;4957188;28;20484;-72
2022/09/22 11:25:45;;;;;;;1.83;1.73;;;16.30;81.90;;;;;;4959317;28;20474;-72
2022/09/22 11:28:50;;;;;;;3.10;1.70;;;16.40;82.00;;;;;;4974523;28;20422;-72
2022/09/22 11:31:38;;;;;;;2.10;1.90;;;16.40;81.80;;;;;;4973855;28;20422;-73
2022/09/22 11:34:34;;;;;;;2.10;1.90;;;16.40;81.70;;;;;;4966469;28;20456;-72
2022/09/22 11:37:25;;;;;;;3.20;1.73;;;16.50;81.80;;;;;;4956753;28;20422;-72
2022/09/22 11:40:34;;;;;;;2.03;1.63;;;16.50;81.60;;;;;;4953236;28;20437;-72
2022/09/22 11:43:17;;;;;;;2.10;1.70;;;16.60;81.50;;;;;;4954702;28;20505;-72
2022/09/22 11:45:50;;;;;;;2.63;1.80;;;16.60;81.30;;;;;;4930262;28;20472;-72
2022/09/22 11:48:31;;;;;;;2.53;1.50;;;16.60;81.10;;;;;;4974083;28;20403;-72
2022/09/22 11:51:26;;;;;;;2.90;1.90;;;16.70;81.00;;;;;;4938195;28;20436;-72
2022/09/22 11:54:26;;;;;;;1.63;1.53;;;16.70;80.70;;;;;;4961036;28;20468;-72
2022/09/22 11:57:01;;;;;;;1.77;1.67;;;16.70;80.70;;;;;;4993261;28;20435;-72
2022/09/22 11:59:52;;;;;;;1.87;1.77;;;16.80;80.50;;;;;;4978028;28;20397;-72
2022/09/22 12:02:53;;;;;;;3.40;1.77;;;16.80;80.20;;;;;;4974230;28;20511;-72
2022/09/22 12:05:41;;;;;;;2.20;2.00;;;16.80;80.20;;;;;;4991738;28;20826;-72
2022/09/22 12:08:24;;;;;;;1.70;1.60;;;16.90;80.10;;;;;;4977845;28;20416;-72
2022/09/22 12:10:56;;;;;;;1.70;1.60;;;16.90;80.10;;;;;;4976870;28;20432;-72
2022/09/22 12:13:41;;;;;;;1.80;1.50;;;16.90;80.00;;;;;;4962022;28;20539;-72
2022/09/22 12:16:40;;;;;;;2.00;1.80;;;16.90;80.00;;;;;;4945627;29;20960;-72
2022/09/22 12:19:12;;;;;;;2.37;1.90;;;17.00;80.00;;;;;;4958404;29;20418;-72
2022/09/22 12:21:49;;;;;;;2.07;1.70;;;17.00;79.90;;;;;;4941122;29;20440;-73
2022/09/22 12:24:52;;;;;;;2.30;1.43;;;17.00;79.90;;;;;;4970986;28;20499;-72
2022/09/22 12:27:27;;;;;;;1.60;1.50;;;17.10;79.90;;;;;;4977486;28;20445;-72
2022/09/22 12:30:00;;;;;;;1.77;1.60;;;17.10;79.90;;;;;;4989133;28;20437;-72
2022/09/22 12:32:49;;;;;;;1.97;1.50;;;17.10;79.70;;;;;;4943813;28;20475;-72
2022/09/22 12:35:28;;;;;;;2.20;2.00;;;17.20;79.50;;;;;;4992591;28;20970;-72
2022/09/22 12:37:54;;;;;;;1.50;1.40;;;17.20;79.30;;;;;;4956405;28;20519;-72
2022/09/22 12:40:40;;;;;;;1.73;1.63;;;17.20;79.30;;;;;;4960186;28;20504;-72
2022/09/22 12:43:19;;;;;;;2.03;1.50;;;17.20;79.30;;;;;;4944507;28;20464;-72
2022/09/22 12:45:52;;;;;;;1.50;1.40;;;17.30;79.10;;;;;;4977082;28;20478;-72
2022/09/22 12:48:23;;;;;;;2.00;1.57;;;17.30;79.10;;;;;;4943927;28;21028;-72
2022/09/22 12:50:52;;;;;;;4.20;1.83;;;17.30;79.00;;;;;;4960158;28;20444;-72
2022/09/22 12:53:21;;;;;;;1.80;1.70;;;17.30;79.00;;;;;;4959836;28;20460;-72
2022/09/22 12:55:51;;;;;;;1.70;1.60;;;17.40;78.90;;;;;;4956755;28;20460;-72
2022/09/22 12:58:22;;;;;;;1.47;1.37;;;17.40;78.80;;;;;;4940735;29;20406;-72
2022/09/22 13:00:55;;;;;;;1.50;1.40;;;17.40;78.60;;;;;;4975394;28;20500;-72
2022/09/22 13:03:25;;;;;;;2.40;1.70;;;17.40;78.50;;;;;;4959697;28;20416;-72
2022/09/22 13:05:53;;;;;;;2.00;1.70;;;17.50;78.70;;;;;;4940260;28;20482;-73
2022/09/22 13:08:47;;;;;;;1.70;1.60;;;17.50;78.50;;;;;;4925050;29;20484;-72
2022/09/22 13:11:17;;;;;;;1.70;1.57;;;17.50;78.40;;;;;;4957516;29;20504;-72
2022/09/22 13:13:44;;;;;;;2.37;2.17;;;17.50;78.40;;;;;;4924593;29;20464;-72
2022/09/22 13:16:13;;;;;;;1.40;1.30;;;17.50;78.20;;;;;;4940274;29;20530;-72
2022/09/22 13:18:45;;;;;;;1.67;1.57;;;17.60;78.20;;;;;;4957743;28;20453;-72
2022/09/22 13:21:11;;;;;;;3.00;2.00;;;17.60;78.20;;;;;;4959415;28;20453;-72
2022/09/22 13:24:01;;;;;;;2.40;2.00;;;17.60;78.30;;;;;;4975336;28;20845;-72
2022/09/22 13:26:32;;;;;;;2.30;1.63;;;17.60;78.20;;;;;;4957053;28;20521;-72
2022/09/22 13:29:14;;;;;;;1.87;1.70;;;17.70;78.00;;;;;;4924331;29;20414;-72
2022/09/22 13:31:50;;;;;;;2.87;1.60;;;17.70;78.00;;;;;;4940119;29;20589;-72
2022/09/22 13:34:31;;;;;;;3.40;1.40;;;17.70;77.90;;;;;;4939941;28;20402;-73
2022/09/22 13:37:16;;;;;;;2.37;1.73;;;17.70;77.90;;;;;;4940224;29;20781;-72
2022/09/22 13:39:44;;;;;;;2.20;1.67;;;17.70;77.90;;;;;;4926585;29;20775;-72
2022/09/22 13:42:31;;;;;;;1.93;1.73;;;17.70;77.10;;;;;;4946185;28;20440;-72
2022/09/22 13:45:15;;;;;;;2.20;1.67;;;17.80;77.50;;;;;;4991085;28;20522;-72